Time;durP1;ratioP1;P1;durP2;ratioP2;P2;SDS_P1;SDS_P2;PMS_P1;PMS_P2;Temp;Humidity;BMP_temperature;BMP_pressure;BME280_temperature;BME280_humidity;BME280_pressure;Samples;Min_cycle;Max_cycle;Signal;HPM_P1;HPM_P2
2023/06/20 00:01:04;;;;;;;;;42.00;38.00;;;;;24.06;52.10;100815.89;112245;1263;18860;-39
2023/06/20 00:03:45;;;;;;;;;45.00;39.00;;;;;24.06;52.01;100823.17;112214;1263;20861;-39
2023/06/20 00:06:12;;;;;;;;;46.50;41.00;;;;;24.04;52.26;100828.81;112099;1247;20113;-37
2023/06/20 00:08:40;;;;;;;;;42.67;40.67;;;;;24.04;52.34;100830.92;112197;1262;20056;-39
2023/06/20 00:11:07;;;;;;;;;43.00;41.50;;;;;24.06;52.32;100832.91;112119;1263;19509;-39
2023/06/20 00:13:36;;;;;;;;;42.00;37.00;;;;;24.08;52.28;100836.73;112253;1255;21521;-38
2023/06/20 00:16:04;;;;;;;;;45.50;39.00;;;;;24.09;52.34;100839.18;112243;1263;20001;-38
2023/06/20 00:18:31;;;;;;;;;42.00;39.00;;;;;24.11;52.47;100838.05;112117;1262;22076;-38
2023/06/20 00:20:59;;;;;;;;;39.50;37.00;;;;;24.10;52.38;100838.13;112255;1263;21810;-39
2023/06/20 00:23:29;;;;;;;;;40.67;37.00;;;;;24.12;52.41;100840.05;112123;1263;20412;-38
2023/06/20 00:25:57;;;;;;;;;36.50;34.50;;;;;24.13;52.39;100837.53;112102;1263;20815;-38
2023/06/20 00:28:24;;;;;;;;;44.33;39.33;;;;;24.12;52.42;100832.67;112268;1263;22650;-37
2023/06/20 00:30:51;;;;;;;;;33.00;30.00;;;;;24.12;52.44;100831.95;112096;1263;19901;-39
2023/06/20 00:33:19;;;;;;;;;41.00;38.00;;;;;24.12;52.56;100832.91;112244;1263;21032;-38
2023/06/20 00:35:47;;;;;;;;;46.00;41.00;;;;;24.12;52.68;100834.98;112117;1263;21563;-38
2023/06/20 00:38:14;;;;;;;;;40.50;36.50;;;;;24.12;52.71;100835.90;112277;1263;20275;-38
2023/06/20 00:40:42;;;;;;;;;45.50;39.50;;;;;24.11;52.70;100836.49;112111;1247;20752;-38
2023/06/20 00:43:09;;;;;;;;;41.00;38.00;;;;;24.10;52.98;100839.45;112276;1262;21779;-38
2023/06/20 00:45:36;;;;;;;;;38.00;35.00;;;;;24.09;53.09;100838.97;112097;1263;19920;-38
2023/06/20 00:48:04;;;;;;;;;42.00;39.00;;;;;24.09;53.08;100842.09;112261;1263;19459;-39
2023/06/20 00:50:31;;;;;;;;;43.00;41.00;;;;;24.10;53.22;100843.45;112136;1248;21657;-38
2023/06/20 00:52:59;;;;;;;;;39.00;38.00;;;;;24.10;53.17;100849.55;112282;1263;20160;-38
2023/06/20 00:55:27;;;;;;;;;38.50;38.00;;;;;24.10;53.17;100849.05;111965;1254;181072;-38
2023/06/20 00:57:54;;;;;;;;;42.00;39.33;;;;;24.09;53.30;100845.88;112252;1248;21899;-38
2023/06/20 01:00:22;;;;;;;;;45.00;41.00;;;;;24.08;53.14;100850.17;112105;1263;18731;-38
2023/06/20 01:02:49;;;;;;;;;43.00;36.50;;;;;24.09;53.04;100848.48;112253;1262;21448;-38
2023/06/20 01:05:17;;;;;;;;;43.00;41.00;;;;;24.08;53.13;100850.20;112089;1263;21705;-38
2023/06/20 01:07:44;;;;;;;;;40.50;38.50;;;;;24.08;52.98;100854.09;112243;1263;20108;-39
2023/06/20 01:10:12;;;;;;;;;43.00;40.00;;;;;24.08;52.97;100855.14;112105;1263;21043;-38
2023/06/20 01:12:39;;;;;;;;;41.00;37.00;;;;;24.07;52.86;100851.87;112274;1263;20449;-38
2023/06/20 01:15:06;;;;;;;;;43.00;40.50;;;;;24.06;52.78;100849.63;112107;1263;20065;-39
2023/06/20 01:17:34;;;;;;;;;45.00;38.00;;;;;24.07;52.89;100854.73;112262;1263;20810;-38
2023/06/20 01:20:12;;;;;;;;;38.00;36.67;;;;;24.09;52.90;100854.38;112078;1247;20319;-39
2023/06/20 01:22:41;;;;;;;;;39.00;34.00;;;;;24.09;52.74;100853.55;112224;1263;20034;-38
2023/06/20 01:25:09;;;;;;;;;47.33;38.33;;;;;24.10;52.70;100850.42;112292;1255;22069;-38
2023/06/20 01:27:36;;;;;;;;;43.50;39.00;;;;;24.09;52.87;100849.92;112109;1247;21535;-39
2023/06/20 01:30:03;;;;;;;;;48.00;41.00;;;;;24.09;52.74;100853.42;112323;1247;18796;-38
2023/06/20 01:32:31;;;;;;;;;41.00;35.00;;;;;24.09;52.77;100846.68;112128;1263;20852;-38
2023/06/20 01:34:58;;;;;;;;;41.00;37.00;;;;;24.08;52.73;100847.26;112287;1248;20112;-38
2023/06/20 01:37:26;;;;;;;;;38.67;35.67;;;;;24.08;52.95;100850.27;112128;1263;18894;-38
2023/06/20 01:39:53;;;;;;;;;44.67;41.00;;;;;24.08;52.85;100849.39;112242;1263;20640;-39
2023/06/20 01:42:21;;;;;;;;;37.00;33.00;;;;;24.08;52.84;100850.11;112163;1248;21391;-38
2023/06/20 01:44:49;;;;;;;;;43.50;40.50;;;;;24.07;52.90;100844.68;112157;1263;19913;-39
2023/06/20 01:47:17;;;;;;;;;45.00;38.00;;;;;24.06;52.77;100841.88;112095;1263;19459;-38
2023/06/20 01:49:46;;;;;;;;;37.00;34.00;;;;;24.06;53.00;100838.42;112243;1262;21590;-38
2023/06/20 01:52:13;;;;;;;;;46.00;41.00;;;;;24.06;53.16;100835.68;112125;1263;18737;-37
2023/06/20 01:54:41;;;;;;;;;40.33;38.67;;;;;24.06;53.45;100833.74;112169;1263;19462;-38
2023/06/20 01:57:08;;;;;;;;;53.00;44.00;;;;;24.03;53.84;100833.77;112065;1263;20172;-38
2023/06/20 01:59:35;;;;;;;;;44.00;40.00;;;;;24.01;54.23;100834.20;112192;1262;19923;-38
2023/06/20 02:02:03;;;;;;;;;43.50;40.00;;;;;23.99;54.33;100837.31;112059;1263;21072;-38
2023/06/20 02:04:31;;;;;;;;;48.00;41.00;;;;;23.99;54.55;100832.80;112184;1248;21795;-38
2023/06/20 02:06:58;;;;;;;;;45.00;38.00;;;;;24.00;54.39;100833.32;112194;1248;21073;-38
2023/06/20 02:09:26;;;;;;;;;45.67;38.67;;;;;24.02;54.46;100832.29;112130;1263;19361;-38
2023/06/20 02:11:53;;;;;;;;;45.00;40.00;;;;;24.01;54.40;100833.04;112167;1263;21688;-38
2023/06/20 02:14:21;;;;;;;;;46.00;41.00;;;;;24.02;54.53;100837.31;112152;1263;20179;-38
2023/06/20 02:16:48;;;;;;;;;44.00;41.00;;;;;24.03;54.23;100837.73;112075;1263;22337;-38
2023/06/20 02:19:15;;;;;;;;;39.50;34.50;;;;;24.03;54.59;100832.60;112182;1263;21427;-37
2023/06/20 02:21:43;;;;;;;;;43.00;34.00;;;;;24.02;54.46;100832.39;112075;1263;19961;-38
2023/06/20 02:24:10;;;;;;;;;44.00;39.00;;;;;24.04;54.50;100831.46;112209;1263;19802;-38
2023/06/20 02:26:38;;;;;;;;;40.00;36.50;;;;;24.04;54.57;100833.48;112027;1263;21573;-38
2023/06/20 02:29:05;;;;;;;;;41.00;38.00;;;;;24.02;54.73;100833.43;112214;1263;21198;-39
2023/06/20 02:31:33;;;;;;;;;35.33;34.67;;;;;24.03;54.58;100834.98;112041;1263;21111;-38
2023/06/20 02:34:00;;;;;;;;;41.50;36.50;;;;;24.03;54.56;100838.32;112173;1248;22873;-37
2023/06/20 02:36:28;;;;;;;;;40.00;35.00;;;;;24.03;54.47;100835.41;112069;1263;18791;-38
2023/06/20 02:38:55;;;;;;;;;50.00;40.00;;;;;24.03;54.53;100837.64;112160;1248;20811;-39
2023/06/20 02:41:23;;;;;;;;;41.00;38.00;;;;;24.02;54.57;100842.57;112045;1263;21439;-38
2023/06/20 02:43:50;;;;;;;;;51.00;40.00;;;;;24.03;54.58;100843.97;112220;1256;18582;-39
2023/06/20 02:46:17;;;;;;;;;38.50;36.00;;;;;24.02;54.52;100848.77;112072;1263;20785;-38
2023/06/20 02:48:45;;;;;;;;;45.50;41.50;;;;;24.03;54.52;100847.05;112227;1262;20315;-38
2023/06/20 02:51:12;;;;;;;;;38.50;34.00;;;;;24.03;54.45;100844.92;112082;1263;20206;-38
2023/06/20 02:53:40;;;;;;;;;39.00;37.00;;;;;24.02;54.35;100846.58;112236;1263;20876;-39
2023/06/20 02:56:07;;;;;;;;;49.00;42.00;;;;;24.02;54.49;100846.78;112111;1263;21487;-38
2023/06/20 02:58:35;;;;;;;;;46.00;41.00;;;;;24.02;54.41;100852.46;112235;1263;18644;-37
2023/06/20 03:01:02;;;;;;;;;45.00;41.33;;;;;24.02;54.47;100846.28;112128;1262;19420;-38
2023/06/20 03:03:29;;;;;;;;;45.00;39.00;;;;;24.01;54.32;100844.95;112230;1263;21610;-38
2023/06/20 03:05:57;;;;;;;;;45.00;41.00;;;;;24.01;54.24;100842.89;112140;1263;18586;-37
2023/06/20 03:08:25;;;;;;;;;41.50;37.00;;;;;23.99;54.41;100842.02;112222;1262;19800;-38
2023/06/20 03:10:52;;;;;;;;;45.67;41.67;;;;;23.98;54.54;100838.52;112085;1257;20102;-39
2023/06/20 03:13:20;;;;;;;;;46.67;41.00;;;;;23.98;54.34;100834.40;112226;1263;18897;-39
2023/06/20 03:15:49;;;;;;;;;53.00;42.00;;;;;23.97;54.72;100839.61;112112;1263;20784;-38
2023/06/20 03:18:17;;;;;;;;;50.67;44.00;;;;;23.95;54.74;100841.01;112099;1263;21453;-40
2023/06/20 03:20:44;;;;;;;;;52.00;42.00;;;;;23.92;54.86;100836.70;112260;1263;18794;-38
2023/06/20 03:23:12;;;;;;;;;57.00;45.00;;;;;23.93;54.95;100836.83;112090;1254;20878;-38
2023/06/20 03:25:39;;;;;;;;;67.00;55.00;;;;;23.91;55.03;100838.37;112239;1263;21398;-39
2023/06/20 03:28:07;;;;;;;;;64.00;51.67;;;;;23.70;55.88;100838.28;112122;1263;20152;-37
2023/06/20 03:30:34;;;;;;;;;67.00;52.00;;;;;23.59;56.20;100834.69;112248;1263;21138;-37
2023/06/20 03:33:02;;;;;;;;;62.00;50.50;;;;;23.54;56.77;100843.00;112149;1248;21547;-38
2023/06/20 03:35:29;;;;;;;;;64.00;51.00;;;;;23.52;56.77;100844.06;112255;1263;19964;-37
2023/06/20 03:37:57;;;;;;;;;57.50;49.00;;;;;23.50;56.82;100845.44;112098;1263;19806;-39
2023/06/20 03:40:24;;;;;;;;;62.00;47.00;;;;;23.52;56.77;100849.86;112277;1263;21722;-38
2023/06/20 03:42:51;;;;;;;;;62.50;47.00;;;;;23.53;56.94;100847.15;112080;1263;19966;-38
2023/06/20 03:45:19;;;;;;;;;49.50;44.50;;;;;23.54;56.68;100846.90;112282;1263;19426;-38
2023/06/20 03:47:46;;;;;;;;;54.00;47.00;;;;;23.54;56.63;100850.15;112101;1263;20348;-39
2023/06/20 03:50:14;;;;;;;;;54.50;46.00;;;;;23.52;56.40;100850.08;112290;1256;19074;-38
2023/06/20 03:52:41;;;;;;;;;60.00;47.00;;;;;23.49;56.56;100853.17;112100;1257;19446;-38
2023/06/20 03:55:09;;;;;;;;;60.50;49.00;;;;;23.46;56.23;100850.27;112258;1263;21370;-38
2023/06/20 03:57:36;;;;;;;;;50.50;46.00;;;;;23.42;56.41;100849.66;112093;1248;19935;-38
2023/06/20 04:00:09;;;;;;;;;48.67;45.00;;;;;23.45;56.22;100851.81;112252;1263;21119;-38
2023/06/20 04:02:37;;;;;;;;;52.00;44.00;;;;;23.46;55.94;100856.06;112140;1248;22035;-38
2023/06/20 04:05:04;;;;;;;;;48.00;44.00;;;;;23.47;55.79;100857.42;112239;1263;20265;-38
2023/06/20 04:07:32;;;;;;;;;55.67;44.67;;;;;23.45;55.74;100858.51;112115;1263;21106;-38
2023/06/20 04:09:59;;;;;;;;;45.00;42.00;;;;;23.43;55.71;100857.92;112282;1263;21443;-38
2023/06/20 04:12:27;;;;;;;;;45.00;42.00;;;;;23.46;55.59;100858.96;112100;1248;19294;-39
2023/06/20 04:14:54;;;;;;;;;50.00;42.50;;;;;23.46;55.41;100862.29;112258;1263;20949;-38
2023/06/20 04:17:22;;;;;;;;;44.33;41.67;;;;;23.46;55.42;100864.83;112162;1263;21962;-37
2023/06/20 04:19:49;;;;;;;;;50.00;45.50;;;;;23.45;55.51;100867.80;112305;1263;19924;-38
2023/06/20 04:22:16;;;;;;;;;67.50;51.50;;;;;23.44;55.37;100861.80;112147;1263;21094;-38
2023/06/20 04:24:44;;;;;;;;;52.00;45.00;;;;;23.45;55.42;100870.27;112330;1263;20107;-38
2023/06/20 04:27:12;;;;;;;;;49.00;42.00;;;;;23.40;55.09;100872.84;112158;1263;20229;-38
2023/06/20 04:29:39;;;;;;;;;44.67;41.00;;;;;23.40;54.89;100870.39;112303;1263;21009;-38
2023/06/20 04:32:07;;;;;;;;;52.50;42.50;;;;;23.35;54.87;100870.62;112192;1248;21774;-39
2023/06/20 04:34:34;;;;;;;;;47.50;42.50;;;;;23.39;54.63;100873.12;112254;1263;18637;-37
2023/06/20 04:37:02;;;;;;;;;47.00;42.50;;;;;23.42;54.86;100874.48;112121;1256;20669;-38
2023/06/20 04:39:30;;;;;;;;;52.00;45.00;;;;;23.41;54.86;100873.05;112274;1248;21793;-38
2023/06/20 04:41:57;;;;;;;;;44.50;40.00;;;;;23.40;55.18;100871.23;112098;1248;20097;-38
2023/06/20 04:44:25;;;;;;;;;53.00;43.00;;;;;23.41;55.14;100873.98;112254;1248;19616;-38
2023/06/20 04:46:55;;;;;;;;;53.00;42.00;;;;;23.42;55.35;100873.36;112105;1248;21543;-38
2023/06/20 04:49:22;;;;;;;;;52.00;45.00;;;;;23.41;55.29;100871.13;112123;1247;19973;-38
2023/06/20 04:51:50;;;;;;;;;49.50;43.50;;;;;23.39;55.35;100871.02;112197;1262;19452;-37
2023/06/20 04:54:17;;;;;;;;;41.00;35.00;;;;;23.42;55.25;100872.90;112078;1263;20062;-38
2023/06/20 04:56:45;;;;;;;;;43.00;39.00;;;;;23.45;55.53;100870.92;112223;1263;18909;-38
2023/06/20 04:59:13;;;;;;;;;46.50;39.50;;;;;23.48;55.65;100868.45;112075;1263;19444;-38
2023/06/20 05:01:40;;;;;;;;;47.67;42.00;;;;;23.48;55.64;100873.02;112180;1248;21879;-37
2023/06/20 05:04:08;;;;;;;;;45.00;41.00;;;;;23.43;55.73;100868.32;112062;1263;21161;-38
2023/06/20 05:06:35;;;;;;;;;48.33;42.33;;;;;23.45;55.44;100868.36;112199;1263;19449;-38
2023/06/20 05:09:03;;;;;;;;;45.33;40.00;;;;;23.52;55.23;100866.41;112049;1262;20119;-38
2023/06/20 05:11:30;;;;;;;;;49.00;43.00;;;;;23.53;54.97;100862.69;112181;1248;19857;-37
2023/06/20 05:13:58;;;;;;;;;38.00;36.00;;;;;23.58;54.79;100862.81;112056;1248;22203;-38
2023/06/20 05:16:25;;;;;;;;;53.00;42.00;;;;;23.60;54.48;100868.13;112165;1262;21523;-38
2023/06/20 05:18:53;;;;;;;;;45.67;38.00;;;;;23.64;54.36;100866.29;112056;1263;19943;-37
2023/06/20 05:21:20;;;;;;;;;44.00;37.00;;;;;23.63;54.20;100868.51;112241;1263;19781;-37
2023/06/20 05:23:48;;;;;;;;;48.00;44.00;;;;;23.54;54.11;100872.45;112096;1263;21388;-38
2023/06/20 05:26:15;;;;;;;;;41.50;36.50;;;;;23.48;53.95;100872.35;112195;1262;18778;-38
2023/06/20 05:28:43;;;;;;;;;40.00;37.00;;;;;23.51;53.92;100874.13;112097;1263;20919;-38
2023/06/20 05:31:10;;;;;;;;;36.50;35.50;;;;;23.60;53.72;100873.48;112206;1263;20255;-38
2023/06/20 05:33:37;;;;;;;;;42.00;39.00;;;;;23.61;53.57;100873.11;112055;1255;20144;-38
2023/06/20 05:36:05;;;;;;;;;36.00;35.00;;;;;23.63;53.50;100868.04;112208;1263;21263;-37
2023/06/20 05:38:33;;;;;;;;;42.50;39.50;;;;;23.67;53.32;100869.06;112090;1247;20127;-37
2023/06/20 05:41:00;;;;;;;;;40.67;37.00;;;;;23.75;53.49;100864.35;112200;1263;18615;-37
2023/06/20 05:43:28;;;;;;;;;47.00;41.00;;;;;23.72;53.67;100867.19;112124;1263;19584;-37
2023/06/20 05:45:55;;;;;;;;;46.67;42.33;;;;;23.67;54.19;100870.34;112044;1262;20522;-38
2023/06/20 05:48:24;;;;;;;;;51.33;42.33;;;;;23.61;54.50;100869.90;112088;1248;19967;-37
2023/06/20 05:50:51;;;;;;;;;49.00;42.00;;;;;23.54;55.14;100870.70;112150;1262;19333;-38
2023/06/20 05:53:20;;;;;;;;;49.33;42.33;;;;;23.58;55.08;100868.21;112285;1263;20209;-38
2023/06/20 05:55:50;;;;;;;;;49.00;43.00;;;;;23.70;55.17;100863.89;112065;1248;19986;-37
2023/06/20 05:58:18;;;;;;;;;49.50;43.00;;;;;23.78;55.20;100862.35;112048;1263;20215;-37
2023/06/20 06:00:46;;;;;;;;;44.00;40.00;;;;;23.80;55.14;100866.43;112113;1263;21450;-37
2023/06/20 06:03:14;;;;;;;;;44.00;41.50;;;;;23.82;55.00;100871.04;112288;1263;18874;-38
2023/06/20 06:05:41;;;;;;;;;44.00;41.00;;;;;23.84;54.75;100871.56;112098;1263;19788;-38
2023/06/20 06:08:09;;;;;;;;;42.00;37.50;;;;;23.88;54.94;100869.58;112308;1262;22131;-38
2023/06/20 06:10:37;;;;;;;;;51.50;43.50;;;;;23.89;54.88;100867.43;112102;1263;22434;-38
2023/06/20 06:13:04;;;;;;;;;47.00;40.50;;;;;23.92;54.57;100864.45;112270;1263;20790;-38
2023/06/20 06:15:31;;;;;;;;;46.00;42.00;;;;;24.02;54.52;100868.00;112134;1262;20417;-37
2023/06/20 06:18:00;;;;;;;;;49.00;41.00;;;;;24.11;54.46;100868.97;112286;1263;18929;-38
2023/06/20 06:20:29;;;;;;;;;47.00;43.00;;;;;24.09;54.22;100870.70;112069;1248;21245;-38
2023/06/20 06:22:56;;;;;;;;;50.00;44.00;;;;;24.14;54.03;100873.91;112118;1248;20080;-38
2023/06/20 06:25:24;;;;;;;;;41.00;40.00;;;;;24.23;54.12;100873.52;112281;1263;19999;-38
2023/06/20 06:27:52;;;;;;;;;40.00;37.00;;;;;24.29;54.06;100873.13;112136;1248;22267;-38
2023/06/20 06:30:19;;;;;;;;;43.67;40.00;;;;;24.30;53.85;100871.04;112279;1248;20492;-38
2023/06/20 06:32:47;;;;;;;;;47.00;41.00;;;;;24.36;53.70;100875.52;112098;1263;19965;-38
2023/06/20 06:35:15;;;;;;;;;41.50;38.50;;;;;24.37;53.29;100877.77;112237;1263;19905;-38
2023/06/20 06:37:42;;;;;;;;;39.00;38.00;;;;;24.41;53.02;100872.18;112111;1263;21374;-38
2023/06/20 06:40:10;;;;;;;;;38.00;35.50;;;;;24.45;52.58;100876.10;112253;1263;20120;-38
2023/06/20 06:42:37;;;;;;;;;41.67;38.33;;;;;24.49;52.08;100873.09;112065;1263;20818;-38
2023/06/20 06:45:05;;;;;;;;;44.50;39.50;;;;;24.54;51.56;100876.81;112222;1263;20451;-38
2023/06/20 06:47:34;;;;;;;;;37.00;36.00;;;;;24.63;51.33;100878.09;112091;1263;20279;-38
2023/06/20 06:50:01;;;;;;;;;41.00;34.00;;;;;24.61;51.26;100881.53;112129;1263;19687;-38
2023/06/20 06:52:29;;;;;;;;;35.00;32.00;;;;;24.64;51.42;100874.05;112278;1263;21599;-38
2023/06/20 06:54:56;;;;;;;;;40.00;35.00;;;;;24.68;51.61;100873.54;112103;1263;21315;-39
2023/06/20 06:57:24;;;;;;;;;33.00;32.00;;;;;24.77;51.62;100876.39;112263;1262;20888;-39
2023/06/20 06:59:51;;;;;;;;;33.00;30.33;;;;;24.77;51.76;100878.16;112134;1248;20195;-39
2023/06/20 07:02:19;;;;;;;;;31.00;30.00;;;;;24.79;51.88;100883.15;112276;1263;20177;-39
2023/06/20 07:04:46;;;;;;;;;36.67;34.00;;;;;24.84;52.01;100886.67;112076;1248;19646;-39
2023/06/20 07:07:14;;;;;;;;;31.50;30.50;;;;;24.96;51.34;100889.04;112298;1263;20182;-39
2023/06/20 07:09:41;;;;;;;;;40.00;32.00;;;;;24.94;51.24;100892.10;112097;1248;19950;-39
2023/06/20 07:12:09;;;;;;;;;33.33;32.33;;;;;24.96;51.40;100892.08;112281;1263;20897;-40
2023/06/20 07:14:36;;;;;;;;;38.67;32.00;;;;;25.06;50.98;100894.86;112107;1263;20425;-39
2023/06/20 07:17:04;;;;;;;;;32.33;30.00;;;;;25.05;50.67;100890.98;112281;1263;19022;-39
2023/06/20 07:19:31;;;;;;;;;40.00;35.00;;;;;25.00;50.92;100889.11;112146;1263;19469;-38
2023/06/20 07:21:58;;;;;;;;;33.00;31.00;;;;;25.01;51.06;100891.17;112285;1263;20694;-39
2023/06/20 07:24:26;;;;;;;;;31.50;29.50;;;;;25.06;50.81;100892.67;112111;1263;20995;-40
2023/06/20 07:26:53;;;;;;;;;31.00;29.00;;;;;25.10;50.61;100893.08;112197;1263;19437;-38
2023/06/20 07:29:21;;;;;;;;;30.00;28.50;;;;;25.05;50.95;100888.47;112138;1263;21421;-38
2023/06/20 07:31:48;;;;;;;;;25.67;24.00;;;;;24.98;51.29;100893.98;112138;1263;19623;-38
2023/06/20 07:34:16;;;;;;;;;31.00;28.33;;;;;24.91;51.72;100887.88;112151;1263;20998;-39
2023/06/20 07:36:43;;;;;;;;;26.50;24.50;;;;;24.90;51.98;100889.33;112102;1263;20109;-38
2023/06/20 07:39:11;;;;;;;;;27.00;25.00;;;;;24.90;52.34;100888.73;112179;1248;18588;-38
2023/06/20 07:41:38;;;;;;;;;24.00;24.00;;;;;24.90;52.48;100889.13;112063;1263;20303;-38
2023/06/20 07:44:07;;;;;;;;;24.00;22.00;;;;;24.89;52.60;100887.26;112185;1247;20097;-37
2023/06/20 07:46:34;;;;;;;;;22.00;21.00;;;;;24.88;52.59;100887.97;112269;1248;19250;-38
2023/06/20 07:49:02;;;;;;;;;20.33;18.67;;;;;24.84;52.76;100886.52;112123;1263;20784;-38
2023/06/20 07:51:33;;;;;;;;;20.00;20.00;;;;;24.82;52.74;100888.56;112290;1248;21341;-37
2023/06/20 07:54:00;;;;;;;;;18.00;18.00;;;;;24.80;52.93;100887.72;112214;1263;18765;-37
2023/06/20 07:56:28;;;;;;;;;19.00;18.00;;;;;24.81;53.06;100887.96;112035;1263;20763;-37
2023/06/20 07:58:55;;;;;;;;;20.00;18.00;;;;;24.83;53.21;100887.72;112189;1248;21630;-37
2023/06/20 08:01:23;;;;;;;;;20.00;20.00;;;;;24.84;53.36;100888.66;112081;1263;20196;-37
2023/06/20 08:03:51;;;;;;;;;17.00;16.00;;;;;24.83;53.37;100888.02;112136;1263;20834;-38
2023/06/20 08:06:18;;;;;;;;;17.00;17.00;;;;;24.84;53.43;100888.66;112179;1247;21575;-38
2023/06/20 08:08:46;;;;;;;;;17.00;17.00;;;;;24.83;53.34;100891.34;112177;1254;19930;-38
2023/06/20 08:11:13;;;;;;;;;16.50;15.00;;;;;24.83;53.41;100896.84;112105;1263;20944;-38
2023/06/20 08:13:41;;;;;;;;;17.00;16.00;;;;;24.82;53.41;100896.06;112201;1263;21489;-37
2023/06/20 08:16:08;;;;;;;;;14.00;13.67;;;;;24.81;53.25;100897.50;112055;1263;19942;-38
2023/06/20 08:18:35;;;;;;;;;16.00;13.33;;;;;24.81;53.30;100897.88;112174;1247;21013;-38
2023/06/20 08:21:03;;;;;;;;;16.50;16.50;;;;;24.81;53.20;100896.23;112074;1263;21628;-38
2023/06/20 08:23:30;;;;;;;;;16.50;16.50;;;;;24.81;53.14;100894.89;112189;1247;19990;-38
2023/06/20 08:25:58;;;;;;;;;16.33;13.00;;;;;24.79;53.26;100896.91;112071;1263;21254;-38
2023/06/20 08:28:25;;;;;;;;;13.00;12.50;;;;;24.78;53.25;100892.64;112188;1262;22692;-38
2023/06/20 08:30:53;;;;;;;;;12.00;10.00;;;;;24.79;53.15;100893.10;112089;1263;19984;-37
2023/06/20 08:33:20;;;;;;;;;14.00;13.00;;;;;24.80;53.20;100894.50;112223;1263;20755;-37
2023/06/20 08:35:48;;;;;;;;;12.00;11.33;;;;;24.79;53.12;100897.14;112071;1263;20123;-38
2023/06/20 08:38:16;;;;;;;;;12.67;11.67;;;;;24.79;53.22;100897.54;112142;1263;19069;-38
2023/06/20 08:40:43;;;;;;;;;13.00;13.00;;;;;24.79;53.11;100898.42;112211;1263;20752;-38
2023/06/20 08:43:11;;;;;;;;;10.00;9.00;;;;;24.79;53.08;100896.64;112194;1248;22659;-38
2023/06/20 08:45:38;;;;;;;;;12.00;12.00;;;;;24.79;53.09;100895.90;112124;1247;19855;-38
2023/06/20 08:48:06;;;;;;;;;12.00;12.00;;;;;24.79;52.92;100893.48;112185;1263;20819;-38
2023/06/20 08:50:33;;;;;;;;;13.00;10.00;;;;;24.79;53.01;100897.73;112108;1248;21540;-38
2023/06/20 08:53:00;;;;;;;;;9.00;8.50;;;;;24.77;52.87;100892.37;112216;1247;20030;-38
2023/06/20 08:55:28;;;;;;;;;12.00;9.00;;;;;24.79;52.85;100892.05;112099;1255;20793;-38
2023/06/20 08:57:56;;;;;;;;;20.00;16.00;;;;;24.80;52.88;100893.16;112214;1263;21415;-39
2023/06/20 09:00:23;;;;;;;;;21.00;20.50;;;;;25.20;50.73;100893.92;112238;1263;18742;-37
2023/06/20 09:02:51;;;;;;;;;15.00;14.00;;;;;25.32;49.13;100893.40;112144;1263;19421;-37
2023/06/20 09:05:18;;;;;;;;;14.00;14.00;;;;;25.19;50.15;100890.30;112149;1263;19955;-37
2023/06/20 09:07:46;;;;;;;;;16.00;13.00;;;;;25.11;50.79;100889.27;112169;1247;19997;-36
2023/06/20 09:10:13;;;;;;;;;16.00;14.00;;;;;25.04;51.57;100891.67;112062;1248;20819;-37
2023/06/20 09:12:41;;;;;;;;;14.00;14.00;;;;;25.02;51.83;100884.95;112161;1263;20281;-37
2023/06/20 09:15:08;;;;;;;;;13.50;13.50;;;;;25.03;52.23;100888.83;112119;1247;19841;-38
2023/06/20 09:17:35;;;;;;;;;13.67;12.67;;;;;25.03;52.53;100885.55;112186;1247;19480;-38
2023/06/20 09:20:04;;;;;;;;;13.50;13.50;;;;;25.02;52.77;100883.33;112051;1263;21545;-38
2023/06/20 09:22:32;;;;;;;;;13.00;11.00;;;;;25.04;53.15;100884.18;112123;1263;18775;-36
2023/06/20 09:24:59;;;;;;;;;13.00;13.00;;;;;25.06;53.39;100881.57;112267;1248;20901;-36
2023/06/20 09:27:26;;;;;;;;;14.00;12.00;;;;;25.06;53.55;100882.84;112127;1263;21691;-37
2023/06/20 09:29:56;;;;;;;;;13.33;10.67;;;;;25.07;53.69;100876.38;112279;1256;19456;-37
2023/06/20 09:32:23;;;;;;;;;12.00;10.00;;;;;25.09;53.63;100879.20;112174;1263;20661;-37
2023/06/20 09:34:51;;;;;;;;;12.00;10.00;;;;;25.09;53.88;100873.33;112164;1263;21801;-38
2023/06/20 09:37:18;;;;;;;;;13.00;13.00;;;;;25.09;53.97;100876.92;112105;1257;18928;-39
2023/06/20 09:39:45;;;;;;;;;13.00;10.00;;;;;25.12;54.22;100882.79;112197;1247;21196;-38
2023/06/20 09:42:13;;;;;;;;;12.00;12.00;;;;;25.10;54.33;100877.17;112078;1263;20408;-39
2023/06/20 09:44:41;;;;;;;;;16.00;13.50;;;;;25.10;54.47;100876.67;112196;1263;18739;-38
2023/06/20 09:47:08;;;;;;;;;12.00;11.00;;;;;25.14;54.18;100877.53;112162;1263;20845;-38
2023/06/20 09:49:35;;;;;;;;;9.00;9.00;;;;;25.15;54.25;100879.32;112189;1247;21357;-38
2023/06/20 09:52:03;;;;;;;;;10.00;10.00;;;;;25.15;54.38;100883.27;112081;1248;20058;-38
2023/06/20 09:54:30;;;;;;;;;9.50;9.50;;;;;25.16;54.53;100885.73;112199;1262;19401;-39
2023/06/20 09:56:59;;;;;;;;;12.00;9.50;;;;;25.13;54.66;100878.66;112123;1256;21553;-37
2023/06/20 09:59:27;;;;;;;;;12.00;10.00;;;;;25.11;54.77;100877.60;112127;1248;19615;-39
2023/06/20 10:01:54;;;;;;;;;10.00;9.50;;;;;25.10;54.77;100879.66;112315;1248;20827;-38
2023/06/20 10:04:22;;;;;;;;;10.00;9.00;;;;;25.09;54.70;100880.54;112120;1262;20098;-38
2023/06/20 10:06:50;;;;;;;;;10.00;10.00;;;;;25.11;54.68;100876.42;112280;1262;18775;-38
2023/06/20 10:09:17;;;;;;;;;10.00;9.33;;;;;25.12;54.93;100875.06;112134;1248;19461;-38
2023/06/20 10:11:45;;;;;;;;;8.50;8.00;;;;;25.13;55.03;100875.88;112237;1248;21575;-38
2023/06/20 10:14:12;;;;;;;;;8.00;8.00;;;;;25.14;55.08;100876.10;112123;1248;20110;-38
2023/06/20 10:16:39;;;;;;;;;10.50;9.50;;;;;25.15;54.94;100873.61;112255;1263;21833;-37
2023/06/20 10:19:07;;;;;;;;;9.00;9.00;;;;;25.16;55.10;100864.38;112103;1250;21450;-38
2023/06/20 10:21:34;;;;;;;;;11.00;9.50;;;;;25.22;55.33;100862.42;112304;1248;19972;-38
2023/06/20 10:24:01;;;;;;;;;11.33;10.00;;;;;25.21;55.29;100866.52;112131;1251;22017;-38
2023/06/20 10:26:29;;;;;;;;;10.67;9.00;;;;;25.18;55.53;100864.21;112287;1263;20262;-38
2023/06/20 10:28:56;;;;;;;;;11.00;10.00;;;;;25.15;55.67;100861.30;112120;1248;20048;-37
2023/06/20 10:31:23;;;;;;;;;9.00;9.00;;;;;25.12;55.42;100857.21;112254;1247;19725;-37
2023/06/20 10:33:51;;;;;;;;;12.00;10.00;;;;;25.09;55.56;100857.96;112164;1263;20723;-37
2023/06/20 10:36:18;;;;;;;;;10.00;8.33;;;;;25.08;55.33;100859.86;112005;1257;19670;-38
2023/06/20 10:38:48;;;;;;;;;8.00;8.00;;;;;25.08;55.39;100857.07;112181;1247;20884;-39
2023/06/20 10:41:15;;;;;;;;;8.00;8.00;;;;;25.10;55.46;100854.65;112193;1248;21519;-39
2023/06/20 10:43:43;;;;;;;;;11.00;9.00;;;;;25.11;55.42;100851.48;112089;1248;19706;-39
2023/06/20 10:46:10;;;;;;;;;9.00;8.50;;;;;25.12;55.39;100849.45;112183;1263;20772;-38
2023/06/20 10:48:38;;;;;;;;;9.00;8.00;;;;;25.14;55.31;100847.44;112072;1248;20090;-38
2023/06/20 10:51:05;;;;;;;;;8.50;8.50;;;;;25.12;55.22;100846.59;112230;1248;19674;-38
2023/06/20 10:53:32;;;;;;;;;9.00;8.00;;;;;25.11;54.99;100845.66;112115;1263;19836;-38
2023/06/20 10:56:00;;;;;;;;;8.00;8.00;;;;;25.09;55.07;100838.61;112240;1248;22711;-38
2023/06/20 10:58:27;;;;;;;;;8.00;6.00;;;;;25.10;54.79;100835.32;112128;1261;19647;-38
2023/06/20 11:00:54;;;;;;;;;8.00;8.00;;;;;25.10;54.74;100836.84;112288;1263;19425;-37
2023/06/20 11:03:22;;;;;;;;;5.67;5.67;;;;;25.11;54.75;100841.10;112118;1248;21718;-38